sensor_id;sensor_type;location;lat;lon;timestamp;temperature;humidity
8067;DHT22;4076;48.076;9.118;2023-09-18T00:01:54;15.40;99.90
8067;DHT22;4076;48.076;9.118;2023-09-18T00:04:20;15.50;99.90
8067;DHT22;4076;48.076;9.118;2023-09-18T00:06:46;15.40;99.90
8067;DHT22;4076;48.076;9.118;2023-09-18T00:09:12;15.40;99.90
8067;DHT22;4076;48.076;9.118;2023-09-18T00:11:39;15.50;99.90
8067;DHT22;4076;48.076;9.118;2023-09-18T00:14:07;15.60;99.90
8067;DHT22;4076;48.076;9.118;2023-09-18T00:16:32;15.60;99.90
8067;DHT22;4076;48.076;9.118;2023-09-18T00:18:58;15.70;99.90
8067;DHT22;4076;48.076;9.118;2023-09-18T00:21:24;15.70;99.90
8067;DHT22;4076;48.076;9.118;2023-09-18T00:23:51;15.80;99.90
8067;DHT22;4076;48.076;9.118;2023-09-18T00:26:16;15.90;99.90
8067;DHT22;4076;48.076;9.118;2023-09-18T00:28:42;15.90;99.90
8067;DHT22;4076;48.076;9.118;2023-09-18T00:31:08;15.90;99.90
8067;DHT22;4076;48.076;9.118;2023-09-18T00:33:33;16.00;99.90
8067;DHT22;4076;48.076;9.118;2023-09-18T00:35:59;16.00;99.90
8067;DHT22;4076;48.076;9.118;2023-09-18T00:38:25;16.00;99.90
8067;DHT22;4076;48.076;9.118;2023-09-18T00:40:50;16.00;99.90
8067;DHT22;4076;48.076;9.118;2023-09-18T00:43:16;16.00;99.90
8067;DHT22;4076;48.076;9.118;2023-09-18T00:45:45;16.10;99.90
8067;DHT22;4076;48.076;9.118;2023-09-18T00:48:12;16.10;99.90
8067;DHT22;4076;48.076;9.118;2023-09-18T00:50:37;16.10;99.90
8067;DHT22;4076;48.076;9.118;2023-09-18T00:53:04;16.10;99.90
8067;DHT22;4076;48.076;9.118;2023-09-18T00:55:32;16.10;99.90
8067;DHT22;4076;48.076;9.118;2023-09-18T00:57:58;16.10;99.90
8067;DHT22;4076;48.076;9.118;2023-09-18T01:00:24;16.10;99.90
8067;DHT22;4076;48.076;9.118;2023-09-18T01:02:49;16.10;99.90
8067;DHT22;4076;48.076;9.118;2023-09-18T01:05:15;16.20;99.90
8067;DHT22;4076;48.076;9.118;2023-09-18T01:07:45;16.20;99.90
8067;DHT22;4076;48.076;9.118;2023-09-18T01:10:12;16.20;99.90
8067;DHT22;4076;48.076;9.118;2023-09-18T01:12:47;16.20;99.90
8067;DHT22;4076;48.076;9.118;2023-09-18T01:15:30;16.20;99.90
8067;DHT22;4076;48.076;9.118;2023-09-18T01:17:58;16.10;99.90
8067;DHT22;4076;48.076;9.118;2023-09-18T01:20:23;16.10;99.90
8067;DHT22;4076;48.076;9.118;2023-09-18T01:22:49;16.10;99.90
8067;DHT22;4076;48.076;9.118;2023-09-18T01:25:15;16.20;99.90
8067;DHT22;4076;48.076;9.118;2023-09-18T01:27:41;16.10;99.90
8067;DHT22;4076;48.076;9.118;2023-09-18T01:30:07;16.10;99.90
8067;DHT22;4076;48.076;9.118;2023-09-18T01:32:35;16.10;99.90
8067;DHT22;4076;48.076;9.118;2023-09-18T01:35:02;16.00;99.90
8067;DHT22;4076;48.076;9.118;2023-09-18T01:37:31;16.10;99.90
8067;DHT22;4076;48.076;9.118;2023-09-18T01:39:58;16.00;99.90
8067;DHT22;4076;48.076;9.118;2023-09-18T01:42:26;16.10;99.90
8067;DHT22;4076;48.076;9.118;2023-09-18T01:44:53;16.00;99.90
8067;DHT22;4076;48.076;9.118;2023-09-18T01:47:20;16.00;99.90
8067;DHT22;4076;48.076;9.118;2023-09-18T01:49:47;16.00;99.90
8067;DHT22;4076;48.076;9.118;2023-09-18T01:52:13;16.00;99.90
8067;DHT22;4076;48.076;9.118;2023-09-18T01:54:38;16.00;99.90
8067;DHT22;4076;48.076;9.118;2023-09-18T01:57:04;16.00;99.90
8067;DHT22;4076;48.076;9.118;2023-09-18T01:59:30;16.00;99.90
8067;DHT22;4076;48.076;9.118;2023-09-18T02:01:56;15.90;99.90
8067;DHT22;4076;48.076;9.118;2023-09-18T02:04:22;16.00;99.90
8067;DHT22;4076;48.076;9.118;2023-09-18T02:06:50;16.00;99.90
8067;DHT22;4076;48.076;9.118;2023-09-18T02:09:16;16.00;99.90
8067;DHT22;4076;48.076;9.118;2023-09-18T02:11:44;16.00;99.90
8067;DHT22;4076;48.076;9.118;2023-09-18T02:14:10;16.00;99.90
8067;DHT22;4076;48.076;9.118;2023-09-18T02:16:38;16.00;99.90
8067;DHT22;4076;48.076;9.118;2023-09-18T02:19:06;16.00;99.90
8067;DHT22;4076;48.076;9.118;2023-09-18T02:21:32;15.90;99.90
8067;DHT22;4076;48.076;9.118;2023-09-18T02:23:58;16.00;99.90
8067;DHT22;4076;48.076;9.118;2023-09-18T02:26:24;15.90;99.90
8067;DHT22;4076;48.076;9.118;2023-09-18T02:28:52;15.80;99.90
8067;DHT22;4076;48.076;9.118;2023-09-18T02:31:18;15.80;99.90
8067;DHT22;4076;48.076;9.118;2023-09-18T02:33:44;15.80;99.90
8067;DHT22;4076;48.076;9.118;2023-09-18T02:36:10;15.80;99.90
8067;DHT22;4076;48.076;9.118;2023-09-18T02:38:35;15.80;99.90
8067;DHT22;4076;48.076;9.118;2023-09-18T02:41:01;15.90;99.90
8067;DHT22;4076;48.076;9.118;2023-09-18T02:43:27;15.90;99.90
8067;DHT22;4076;48.076;9.118;2023-09-18T02:45:52;15.90;99.90
8067;DHT22;4076;48.076;9.118;2023-09-18T02:48:18;15.90;99.90
8067;DHT22;4076;48.076;9.118;2023-09-18T02:50:44;15.90;99.90
8067;DHT22;4076;48.076;9.118;2023-09-18T02:53:23;15.90;99.90
8067;DHT22;4076;48.076;9.118;2023-09-18T02:55:51;15.80;99.90
8067;DHT22;4076;48.076;9.118;2023-09-18T02:58:17;15.80;99.90
8067;DHT22;4076;48.076;9.118;2023-09-18T03:00:45;15.80;99.90
8067;DHT22;4076;48.076;9.118;2023-09-18T03:03:11;15.80;99.90
8067;DHT22;4076;48.076;9.118;2023-09-18T03:05:38;15.80;99.90
8067;DHT22;4076;48.076;9.118;2023-09-18T03:08:07;15.80;99.90
8067;DHT22;4076;48.076;9.118;2023-09-18T03:10:39;15.80;99.90
8067;DHT22;4076;48.076;9.118;2023-09-18T03:13:05;15.80;99.90
8067;DHT22;4076;48.076;9.118;2023-09-18T03:15:31;15.80;99.90
8067;DHT22;4076;48.076;9.118;2023-09-18T03:17:58;15.70;99.90
8067;DHT22;4076;48.076;9.118;2023-09-18T03:20:25;15.60;99.90
8067;DHT22;4076;48.076;9.118;2023-09-18T03:22:52;15.60;99.90
8067;DHT22;4076;48.076;9.118;2023-09-18T03:25:17;15.70;99.90
8067;DHT22;4076;48.076;9.118;2023-09-18T03:27:43;15.60;99.90
8067;DHT22;4076;48.076;9.118;2023-09-18T03:30:09;15.70;99.90
8067;DHT22;4076;48.076;9.118;2023-09-18T03:32:38;15.70;99.90
8067;DHT22;4076;48.076;9.118;2023-09-18T03:35:04;15.80;99.90
8067;DHT22;4076;48.076;9.118;2023-09-18T03:37:30;15.80;99.90
8067;DHT22;4076;48.076;9.118;2023-09-18T03:39:55;15.80;99.90
8067;DHT22;4076;48.076;9.118;2023-09-18T03:42:21;15.90;99.90
8067;DHT22;4076;48.076;9.118;2023-09-18T03:44:46;15.90;99.90
8067;DHT22;4076;48.076;9.118;2023-09-18T03:47:12;15.90;99.90
8067;DHT22;4076;48.076;9.118;2023-09-18T03:49:37;15.80;99.90
8067;DHT22;4076;48.076;9.118;2023-09-18T03:52:03;15.80;99.90
8067;DHT22;4076;48.076;9.118;2023-09-18T03:54:29;15.80;99.90
8067;DHT22;4076;48.076;9.118;2023-09-18T03:56:54;15.80;99.90
8067;DHT22;4076;48.076;9.118;2023-09-18T03:59:20;15.80;99.90
8067;DHT22;4076;48.076;9.118;2023-09-18T04:01:45;15.80;99.90
8067;DHT22;4076;48.076;9.118;2023-09-18T04:04:11;15.80;99.90
8067;DHT22;4076;48.076;9.118;2023-09-18T04:06:40;15.80;99.90
8067;DHT22;4076;48.076;9.118;2023-09-18T04:09:05;15.80;99.90
8067;DHT22;4076;48.076;9.118;2023-09-18T04:11:31;15.80;99.90
8067;DHT22;4076;48.076;9.118;2023-09-18T04:14:00;15.70;99.90
8067;DHT22;4076;48.076;9.118;2023-09-18T04:16:26;15.70;99.90
8067;DHT22;4076;48.076;9.118;2023-09-18T04:18:53;15.70;99.90
8067;DHT22;4076;48.076;9.118;2023-09-18T04:21:19;15.70;99.90
8067;DHT22;4076;48.076;9.118;2023-09-18T04:23:44;15.70;99.90
8067;DHT22;4076;48.076;9.118;2023-09-18T04:26:10;15.60;99.90
8067;DHT22;4076;48.076;9.118;2023-09-18T04:28:40;15.50;99.90
8067;DHT22;4076;48.076;9.118;2023-09-18T04:31:06;15.50;99.90
8067;DHT22;4076;48.076;9.118;2023-09-18T04:33:31;15.50;99.90
8067;DHT22;4076;48.076;9.118;2023-09-18T04:35:57;15.40;99.90
8067;DHT22;4076;48.076;9.118;2023-09-18T04:38:22;15.50;99.90
8067;DHT22;4076;48.076;9.118;2023-09-18T04:40:48;15.40;99.90
8067;DHT22;4076;48.076;9.118;2023-09-18T04:43:14;15.40;99.90
8067;DHT22;4076;48.076;9.118;2023-09-18T04:45:39;15.40;99.90
8067;DHT22;4076;48.076;9.118;2023-09-18T04:48:05;15.40;99.90
8067;DHT22;4076;48.076;9.118;2023-09-18T04:50:33;15.40;99.90
8067;DHT22;4076;48.076;9.118;2023-09-18T04:52:59;15.30;99.90
8067;DHT22;4076;48.076;9.118;2023-09-18T04:55:25;15.30;99.90
8067;DHT22;4076;48.076;9.118;2023-09-18T04:57:50;15.30;99.90
8067;DHT22;4076;48.076;9.118;2023-09-18T05:00:16;15.20;99.90
8067;DHT22;4076;48.076;9.118;2023-09-18T05:02:42;15.20;99.90
8067;DHT22;4076;48.076;9.118;2023-09-18T05:05:08;15.30;99.90
8067;DHT22;4076;48.076;9.118;2023-09-18T05:07:34;15.30;99.90
8067;DHT22;4076;48.076;9.118;2023-09-18T05:10:00;15.30;99.90
8067;DHT22;4076;48.076;9.118;2023-09-18T05:12:25;15.30;99.90
8067;DHT22;4076;48.076;9.118;2023-09-18T05:14:51;15.40;99.90
8067;DHT22;4076;48.076;9.118;2023-09-18T05:17:17;15.40;99.90
8067;DHT22;4076;48.076;9.118;2023-09-18T05:19:44;15.40;99.90
8067;DHT22;4076;48.076;9.118;2023-09-18T05:22:10;15.30;99.90
8067;DHT22;4076;48.076;9.118;2023-09-18T05:24:37;15.40;99.90
8067;DHT22;4076;48.076;9.118;2023-09-18T05:27:02;15.40;99.90
8067;DHT22;4076;48.076;9.118;2023-09-18T05:29:28;15.50;99.90
8067;DHT22;4076;48.076;9.118;2023-09-18T05:31:54;15.50;99.90
8067;DHT22;4076;48.076;9.118;2023-09-18T05:34:20;15.50;99.90
8067;DHT22;4076;48.076;9.118;2023-09-18T05:36:45;15.50;99.90
8067;DHT22;4076;48.076;9.118;2023-09-18T05:39:11;15.60;99.90
8067;DHT22;4076;48.076;9.118;2023-09-18T05:41:39;15.60;99.90
8067;DHT22;4076;48.076;9.118;2023-09-18T05:44:05;15.70;99.90
8067;DHT22;4076;48.076;9.118;2023-09-18T05:46:35;15.80;99.90
8067;DHT22;4076;48.076;9.118;2023-09-18T05:49:01;15.80;99.90
8067;DHT22;4076;48.076;9.118;2023-09-18T05:51:27;15.90;99.90
8067;DHT22;4076;48.076;9.118;2023-09-18T05:53:52;16.00;99.90
8067;DHT22;4076;48.076;9.118;2023-09-18T05:56:18;16.00;99.90
8067;DHT22;4076;48.076;9.118;2023-09-18T05:58:44;16.00;99.90
8067;DHT22;4076;48.076;9.118;2023-09-18T06:01:09;16.10;99.90
8067;DHT22;4076;48.076;9.118;2023-09-18T06:03:35;16.10;99.90
8067;DHT22;4076;48.076;9.118;2023-09-18T06:06:02;16.20;99.90
8067;DHT22;4076;48.076;9.118;2023-09-18T06:08:28;16.20;99.90
8067;DHT22;4076;48.076;9.118;2023-09-18T06:10:56;16.30;99.90
8067;DHT22;4076;48.076;9.118;2023-09-18T06:13:21;16.30;99.90
8067;DHT22;4076;48.076;9.118;2023-09-18T06:15:48;16.40;99.90
8067;DHT22;4076;48.076;9.118;2023-09-18T06:18:14;16.40;99.90
8067;DHT22;4076;48.076;9.118;2023-09-18T06:20:39;16.70;99.90
8067;DHT22;4076;48.076;9.118;2023-09-18T06:23:06;16.70;99.90
8067;DHT22;4076;48.076;9.118;2023-09-18T06:25:32;16.80;99.90
8067;DHT22;4076;48.076;9.118;2023-09-18T06:27:57;16.80;99.90
8067;DHT22;4076;48.076;9.118;2023-09-18T06:30:23;16.90;99.90
8067;DHT22;4076;48.076;9.118;2023-09-18T06:32:49;16.90;99.90
8067;DHT22;4076;48.076;9.118;2023-09-18T06:35:15;16.80;99.90
8067;DHT22;4076;48.076;9.118;2023-09-18T06:37:40;16.80;99.90
8067;DHT22;4076;48.076;9.118;2023-09-18T06:40:06;16.80;99.90
8067;DHT22;4076;48.076;9.118;2023-09-18T06:42:32;16.80;99.90
8067;DHT22;4076;48.076;9.118;2023-09-18T06:44:58;16.70;99.90
8067;DHT22;4076;48.076;9.118;2023-09-18T06:47:24;16.70;99.90
8067;DHT22;4076;48.076;9.118;2023-09-18T06:49:50;16.70;99.90
8067;DHT22;4076;48.076;9.118;2023-09-18T06:52:16;16.80;99.90
8067;DHT22;4076;48.076;9.118;2023-09-18T06:54:42;16.90;99.90
8067;DHT22;4076;48.076;9.118;2023-09-18T06:57:09;17.00;99.90
8067;DHT22;4076;48.076;9.118;2023-09-18T06:59:35;17.00;99.90
8067;DHT22;4076;48.076;9.118;2023-09-18T07:02:01;17.10;99.90
8067;DHT22;4076;48.076;9.118;2023-09-18T07:04:27;17.10;99.90
8067;DHT22;4076;48.076;9.118;2023-09-18T07:06:53;17.10;99.90
8067;DHT22;4076;48.076;9.118;2023-09-18T07:09:19;17.20;99.90
8067;DHT22;4076;48.076;9.118;2023-09-18T07:11:48;17.20;99.90
8067;DHT22;4076;48.076;9.118;2023-09-18T07:14:14;17.30;99.90
8067;DHT22;4076;48.076;9.118;2023-09-18T07:16:40;17.40;99.90
8067;DHT22;4076;48.076;9.118;2023-09-18T07:19:06;17.40;99.90
8067;DHT22;4076;48.076;9.118;2023-09-18T07:21:32;17.50;99.90
8067;DHT22;4076;48.076;9.118;2023-09-18T07:23:58;17.50;99.90
8067;DHT22;4076;48.076;9.118;2023-09-18T07:26:24;17.50;99.90
8067;DHT22;4076;48.076;9.118;2023-09-18T07:28:49;17.60;99.90
8067;DHT22;4076;48.076;9.118;2023-09-18T07:31:15;17.60;99.90
8067;DHT22;4076;48.076;9.118;2023-09-18T07:33:41;17.60;99.90
8067;DHT22;4076;48.076;9.118;2023-09-18T07:36:07;17.60;99.90
8067;DHT22;4076;48.076;9.118;2023-09-18T07:38:32;17.60;99.90
8067;DHT22;4076;48.076;9.118;2023-09-18T07:40:58;17.50;99.90
8067;DHT22;4076;48.076;9.118;2023-09-18T07:43:24;17.60;99.90
8067;DHT22;4076;48.076;9.118;2023-09-18T07:45:50;17.70;99.90
8067;DHT22;4076;48.076;9.118;2023-09-18T07:48:16;17.70;99.90
8067;DHT22;4076;48.076;9.118;2023-09-18T07:50:45;17.70;99.90
8067;DHT22;4076;48.076;9.118;2023-09-18T07:53:11;17.80;99.90
8067;DHT22;4076;48.076;9.118;2023-09-18T07:55:36;17.90;99.90
8067;DHT22;4076;48.076;9.118;2023-09-18T07:58:03;17.80;99.90
8067;DHT22;4076;48.076;9.118;2023-09-18T08:00:30;17.90;99.90
8067;DHT22;4076;48.076;9.118;2023-09-18T08:02:56;17.90;99.90
8067;DHT22;4076;48.076;9.118;2023-09-18T08:05:26;17.90;99.90
8067;DHT22;4076;48.076;9.118;2023-09-18T08:07:57;17.90;99.90
8067;DHT22;4076;48.076;9.118;2023-09-18T08:10:27;17.90;99.90
8067;DHT22;4076;48.076;9.118;2023-09-18T08:12:52;17.90;99.90
8067;DHT22;4076;48.076;9.118;2023-09-18T08:15:19;18.10;99.90
8067;DHT22;4076;48.076;9.118;2023-09-18T08:17:46;18.00;99.90
8067;DHT22;4076;48.076;9.118;2023-09-18T08:20:12;18.00;99.90
8067;DHT22;4076;48.076;9.118;2023-09-18T08:22:39;18.00;99.90
8067;DHT22;4076;48.076;9.118;2023-09-18T08:25:06;18.00;99.90
8067;DHT22;4076;48.076;9.118;2023-09-18T08:27:37;18.00;99.90
8067;DHT22;4076;48.076;9.118;2023-09-18T08:30:07;18.00;99.90
8067;DHT22;4076;48.076;9.118;2023-09-18T08:32:35;17.90;99.90
8067;DHT22;4076;48.076;9.118;2023-09-18T08:35:01;17.90;99.90
8067;DHT22;4076;48.076;9.118;2023-09-18T08:37:27;17.70;99.90
8067;DHT22;4076;48.076;9.118;2023-09-18T08:39:53;17.90;99.90
8067;DHT22;4076;48.076;9.118;2023-09-18T08:42:20;17.80;99.90
8067;DHT22;4076;48.076;9.118;2023-09-18T08:44:49;17.80;99.90
8067;DHT22;4076;48.076;9.118;2023-09-18T08:47:17;17.70;99.90
8067;DHT22;4076;48.076;9.118;2023-09-18T08:49:45;17.70;99.90
8067;DHT22;4076;48.076;9.118;2023-09-18T08:52:12;17.70;99.90
8067;DHT22;4076;48.076;9.118;2023-09-18T08:54:40;17.60;99.90
8067;DHT22;4076;48.076;9.118;2023-09-18T08:57:05;17.60;99.90
8067;DHT22;4076;48.076;9.118;2023-09-18T08:59:34;17.60;99.90
8067;DHT22;4076;48.076;9.118;2023-09-18T09:02:00;17.50;99.90
8067;DHT22;4076;48.076;9.118;2023-09-18T09:04:26;17.40;99.90
8067;DHT22;4076;48.076;9.118;2023-09-18T09:06:52;17.40;99.90
8067;DHT22;4076;48.076;9.118;2023-09-18T09:09:17;17.30;99.90
8067;DHT22;4076;48.076;9.118;2023-09-18T09:11:51;17.30;99.90
8067;DHT22;4076;48.076;9.118;2023-09-18T09:14:17;17.30;99.90
8067;DHT22;4076;48.076;9.118;2023-09-18T09:16:48;17.20;99.90
8067;DHT22;4076;48.076;9.118;2023-09-18T09:19:16;17.20;99.90
8067;DHT22;4076;48.076;9.118;2023-09-18T09:21:43;17.20;99.90
8067;DHT22;4076;48.076;9.118;2023-09-18T09:24:10;17.20;99.90
8067;DHT22;4076;48.076;9.118;2023-09-18T09:26:42;17.20;99.90
8067;DHT22;4076;48.076;9.118;2023-09-18T09:29:19;17.20;99.90
8067;DHT22;4076;48.076;9.118;2023-09-18T09:31:46;17.10;99.90
8067;DHT22;4076;48.076;9.118;2023-09-18T09:34:12;17.20;99.90
8067;DHT22;4076;48.076;9.118;2023-09-18T09:36:54;17.20;99.90
8067;DHT22;4076;48.076;9.118;2023-09-18T09:39:21;17.20;99.90
8067;DHT22;4076;48.076;9.118;2023-09-18T09:41:47;17.30;99.90
8067;DHT22;4076;48.076;9.118;2023-09-18T09:44:14;17.30;99.90
8067;DHT22;4076;48.076;9.118;2023-09-18T09:46:48;17.40;99.90
8067;DHT22;4076;48.076;9.118;2023-09-18T09:49:14;17.40;99.90
8067;DHT22;4076;48.076;9.118;2023-09-18T09:51:43;17.40;99.90
8067;DHT22;4076;48.076;9.118;2023-09-18T09:54:09;17.40;99.90
8067;DHT22;4076;48.076;9.118;2023-09-18T09:56:49;17.50;99.90
8067;DHT22;4076;48.076;9.118;2023-09-18T09:59:19;17.50;99.90
8067;DHT22;4076;48.076;9.118;2023-09-18T10:01:48;17.40;99.90
8067;DHT22;4076;48.076;9.118;2023-09-18T10:04:18;17.50;99.90
8067;DHT22;4076;48.076;9.118;2023-09-18T10:06:51;17.50;99.90
8067;DHT22;4076;48.076;9.118;2023-09-18T10:09:20;17.50;99.90
8067;DHT22;4076;48.076;9.118;2023-09-18T10:11:51;17.50;99.90
8067;DHT22;4076;48.076;9.118;2023-09-18T10:14:29;17.40;99.90
8067;DHT22;4076;48.076;9.118;2023-09-18T10:16:56;17.30;99.90
8067;DHT22;4076;48.076;9.118;2023-09-18T10:24:59;17.40;99.90
8067;DHT22;4076;48.076;9.118;2023-09-18T10:27:27;17.50;99.90
8067;DHT22;4076;48.076;9.118;2023-09-18T10:29:54;17.50;99.90
8067;DHT22;4076;48.076;9.118;2023-09-18T10:32:20;17.50;99.90
8067;DHT22;4076;48.076;9.118;2023-09-18T10:34:47;17.60;99.90
8067;DHT22;4076;48.076;9.118;2023-09-18T10:37:15;17.60;99.90
8067;DHT22;4076;48.076;9.118;2023-09-18T10:39:41;17.50;99.90
8067;DHT22;4076;48.076;9.118;2023-09-18T10:42:08;17.50;99.90
8067;DHT22;4076;48.076;9.118;2023-09-18T10:44:34;17.50;99.90
8067;DHT22;4076;48.076;9.118;2023-09-18T10:47:02;17.50;99.90
8067;DHT22;4076;48.076;9.118;2023-09-18T10:49:31;17.50;99.90
8067;DHT22;4076;48.076;9.118;2023-09-18T10:51:56;17.50;99.90
8067;DHT22;4076;48.076;9.118;2023-09-18T10:54:24;17.50;99.90
8067;DHT22;4076;48.076;9.118;2023-09-18T10:56:51;17.50;99.90
8067;DHT22;4076;48.076;9.118;2023-09-18T10:59:17;17.50;99.90
8067;DHT22;4076;48.076;9.118;2023-09-18T11:01:43;17.50;99.90
8067;DHT22;4076;48.076;9.118;2023-09-18T11:04:10;17.40;99.90
8067;DHT22;4076;48.076;9.118;2023-09-18T11:09:22;17.40;99.90
8067;DHT22;4076;48.076;9.118;2023-09-18T11:12:08;17.30;99.90
8067;DHT22;4076;48.076;9.118;2023-09-18T11:14:56;17.40;99.90
8067;DHT22;4076;48.076;9.118;2023-09-18T11:17:30;17.40;99.90
8067;DHT22;4076;48.076;9.118;2023-09-18T11:20:02;17.40;99.90
8067;DHT22;4076;48.076;9.118;2023-09-18T11:22:31;17.40;99.90
8067;DHT22;4076;48.076;9.118;2023-09-18T11:28:01;17.30;99.90
8067;DHT22;4076;48.076;9.118;2023-09-18T11:30:28;17.20;99.90
8067;DHT22;4076;48.076;9.118;2023-09-18T11:32:54;17.20;99.90
8067;DHT22;4076;48.076;9.118;2023-09-18T11:35:21;17.20;99.90
8067;DHT22;4076;48.076;9.118;2023-09-18T11:37:48;17.30;99.90
8067;DHT22;4076;48.076;9.118;2023-09-18T11:40:32;17.20;99.90
8067;DHT22;4076;48.076;9.118;2023-09-18T11:45:54;17.30;99.90
8067;DHT22;4076;48.076;9.118;2023-09-18T11:48:22;17.30;99.90
8067;DHT22;4076;48.076;9.118;2023-09-18T11:50:51;17.20;99.90
8067;DHT22;4076;48.076;9.118;2023-09-18T11:53:17;17.20;99.90
8067;DHT22;4076;48.076;9.118;2023-09-18T11:55:44;17.20;99.90
8067;DHT22;4076;48.076;9.118;2023-09-18T11:58:10;17.30;99.90
8067;DHT22;4076;48.076;9.118;2023-09-18T12:00:36;17.30;99.90
8067;DHT22;4076;48.076;9.118;2023-09-18T12:03:29;17.20;99.90
8067;DHT22;4076;48.076;9.118;2023-09-18T12:06:00;17.20;99.90
8067;DHT22;4076;48.076;9.118;2023-09-18T12:08:26;17.30;99.90
8067;DHT22;4076;48.076;9.118;2023-09-18T12:10:55;17.30;99.90
8067;DHT22;4076;48.076;9.118;2023-09-18T12:13:21;17.30;99.90
8067;DHT22;4076;48.076;9.118;2023-09-18T12:15:49;17.30;99.90
8067;DHT22;4076;48.076;9.118;2023-09-18T12:18:15;17.30;99.90
8067;DHT22;4076;48.076;9.118;2023-09-18T12:20:46;17.30;99.90
8067;DHT22;4076;48.076;9.118;2023-09-18T12:23:11;17.20;99.90
8067;DHT22;4076;48.076;9.118;2023-09-18T12:25:38;17.10;99.90
8067;DHT22;4076;48.076;9.118;2023-09-18T12:28:06;17.30;99.90
8067;DHT22;4076;48.076;9.118;2023-09-18T12:30:33;17.30;99.90
8067;DHT22;4076;48.076;9.118;2023-09-18T12:32:59;17.40;99.90
8067;DHT22;4076;48.076;9.118;2023-09-18T12:35:29;17.50;99.90
8067;DHT22;4076;48.076;9.118;2023-09-18T12:38:14;17.60;99.90
8067;DHT22;4076;48.076;9.118;2023-09-18T12:40:40;17.70;99.90
8067;DHT22;4076;48.076;9.118;2023-09-18T12:43:06;17.80;99.90
8067;DHT22;4076;48.076;9.118;2023-09-18T12:45:34;17.90;99.90
8067;DHT22;4076;48.076;9.118;2023-09-18T12:48:01;17.90;99.90
8067;DHT22;4076;48.076;9.118;2023-09-18T12:50:26;18.00;99.90
8067;DHT22;4076;48.076;9.118;2023-09-18T12:52:52;18.10;99.90
8067;DHT22;4076;48.076;9.118;2023-09-18T12:55:25;18.10;99.90
8067;DHT22;4076;48.076;9.118;2023-09-18T12:57:51;18.20;99.90
8067;DHT22;4076;48.076;9.118;2023-09-18T13:00:21;18.20;99.90
8067;DHT22;4076;48.076;9.118;2023-09-18T13:02:49;18.30;99.90
8067;DHT22;4076;48.076;9.118;2023-09-18T13:05:21;18.40;99.90
8067;DHT22;4076;48.076;9.118;2023-09-18T13:07:54;18.50;99.90
8067;DHT22;4076;48.076;9.118;2023-09-18T13:10:21;18.50;99.90
8067;DHT22;4076;48.076;9.118;2023-09-18T13:12:51;18.60;99.90
8067;DHT22;4076;48.076;9.118;2023-09-18T13:15:33;18.70;99.90
8067;DHT22;4076;48.076;9.118;2023-09-18T13:18:01;18.70;99.90
8067;DHT22;4076;48.076;9.118;2023-09-18T13:20:29;18.40;99.90
8067;DHT22;4076;48.076;9.118;2023-09-18T13:22:57;18.60;99.90
8067;DHT22;4076;48.076;9.118;2023-09-18T13:25:33;18.50;99.90
8067;DHT22;4076;48.076;9.118;2023-09-18T13:28:00;18.50;99.90
8067;DHT22;4076;48.076;9.118;2023-09-18T13:30:26;18.50;99.90
8067;DHT22;4076;48.076;9.118;2023-09-18T13:33:02;18.50;99.90
8067;DHT22;4076;48.076;9.118;2023-09-18T13:35:29;18.50;99.90
8067;DHT22;4076;48.076;9.118;2023-09-18T13:37:54;18.60;99.90
8067;DHT22;4076;48.076;9.118;2023-09-18T13:40:20;18.70;99.90
8067;DHT22;4076;48.076;9.118;2023-09-18T13:42:47;18.70;99.90
8067;DHT22;4076;48.076;9.118;2023-09-18T13:45:14;18.70;99.90
8067;DHT22;4076;48.076;9.118;2023-09-18T13:47:41;18.70;99.90
8067;DHT22;4076;48.076;9.118;2023-09-18T13:50:07;18.70;99.90
8067;DHT22;4076;48.076;9.118;2023-09-18T13:52:35;18.90;99.90
8067;DHT22;4076;48.076;9.118;2023-09-18T13:55:04;19.00;99.90
8067;DHT22;4076;48.076;9.118;2023-09-18T13:57:34;19.10;99.90
8067;DHT22;4076;48.076;9.118;2023-09-18T14:00:04;19.10;99.90
8067;DHT22;4076;48.076;9.118;2023-09-18T14:02:36;19.00;99.90
8067;DHT22;4076;48.076;9.118;2023-09-18T14:05:01;19.00;99.90
8067;DHT22;4076;48.076;9.118;2023-09-18T14:07:29;19.00;99.90
8067;DHT22;4076;48.076;9.118;2023-09-18T14:09:54;19.00;99.90
8067;DHT22;4076;48.076;9.118;2023-09-18T14:12:20;19.10;99.90
8067;DHT22;4076;48.076;9.118;2023-09-18T14:14:46;19.10;99.90
8067;DHT22;4076;48.076;9.118;2023-09-18T14:17:12;19.30;99.90
8067;DHT22;4076;48.076;9.118;2023-09-18T14:19:38;19.50;99.90
8067;DHT22;4076;48.076;9.118;2023-09-18T14:22:04;19.40;99.90
8067;DHT22;4076;48.076;9.118;2023-09-18T14:24:31;19.40;99.90
8067;DHT22;4076;48.076;9.118;2023-09-18T14:27:03;19.40;99.90
8067;DHT22;4076;48.076;9.118;2023-09-18T14:29:29;19.40;99.90
8067;DHT22;4076;48.076;9.118;2023-09-18T14:31:57;19.30;99.90
8067;DHT22;4076;48.076;9.118;2023-09-18T14:34:23;19.20;99.90
8067;DHT22;4076;48.076;9.118;2023-09-18T14:36:49;19.20;99.90
8067;DHT22;4076;48.076;9.118;2023-09-18T14:39:14;19.20;99.90
8067;DHT22;4076;48.076;9.118;2023-09-18T14:41:40;19.30;99.90
8067;DHT22;4076;48.076;9.118;2023-09-18T14:44:09;19.30;99.90
8067;DHT22;4076;48.076;9.118;2023-09-18T14:46:36;19.30;99.90
8067;DHT22;4076;48.076;9.118;2023-09-18T14:49:05;19.30;99.90
8067;DHT22;4076;48.076;9.118;2023-09-18T14:51:33;19.30;99.90
8067;DHT22;4076;48.076;9.118;2023-09-18T14:53:59;19.20;99.90
8067;DHT22;4076;48.076;9.118;2023-09-18T14:56:25;19.20;99.90
8067;DHT22;4076;48.076;9.118;2023-09-18T14:58:50;19.20;99.90
8067;DHT22;4076;48.076;9.118;2023-09-18T15:01:18;19.20;99.90
8067;DHT22;4076;48.076;9.118;2023-09-18T15:03:43;19.20;99.90
8067;DHT22;4076;48.076;9.118;2023-09-18T15:06:10;19.20;99.90
8067;DHT22;4076;48.076;9.118;2023-09-18T15:08:36;19.20;99.90
8067;DHT22;4076;48.076;9.118;2023-09-18T15:11:02;19.20;99.90
8067;DHT22;4076;48.076;9.118;2023-09-18T15:13:29;19.20;99.90
8067;DHT22;4076;48.076;9.118;2023-09-18T15:15:55;19.40;99.90
8067;DHT22;4076;48.076;9.118;2023-09-18T15:18:21;19.30;99.90
8067;DHT22;4076;48.076;9.118;2023-09-18T15:20:47;19.30;99.90
8067;DHT22;4076;48.076;9.118;2023-09-18T15:23:13;19.20;99.90
8067;DHT22;4076;48.076;9.118;2023-09-18T15:25:39;19.20;99.90
8067;DHT22;4076;48.076;9.118;2023-09-18T15:28:06;19.10;99.90
8067;DHT22;4076;48.076;9.118;2023-09-18T15:30:32;19.00;99.90
8067;DHT22;4076;48.076;9.118;2023-09-18T15:32:58;19.00;99.90
8067;DHT22;4076;48.076;9.118;2023-09-18T15:35:23;19.00;99.90
8067;DHT22;4076;48.076;9.118;2023-09-18T15:37:50;18.90;99.90
8067;DHT22;4076;48.076;9.118;2023-09-18T15:40:16;18.80;99.90
8067;DHT22;4076;48.076;9.118;2023-09-18T15:42:44;18.80;99.90
8067;DHT22;4076;48.076;9.118;2023-09-18T15:45:11;18.80;99.90
8067;DHT22;4076;48.076;9.118;2023-09-18T15:47:37;18.80;99.90
8067;DHT22;4076;48.076;9.118;2023-09-18T15:50:04;18.70;99.90
8067;DHT22;4076;48.076;9.118;2023-09-18T15:52:30;18.60;99.90
8067;DHT22;4076;48.076;9.118;2023-09-18T15:54:56;18.60;99.90
8067;DHT22;4076;48.076;9.118;2023-09-18T15:57:22;18.50;99.90
8067;DHT22;4076;48.076;9.118;2023-09-18T15:59:47;18.50;99.90
8067;DHT22;4076;48.076;9.118;2023-09-18T16:02:13;18.50;99.90
8067;DHT22;4076;48.076;9.118;2023-09-18T16:04:39;18.40;99.90
8067;DHT22;4076;48.076;9.118;2023-09-18T16:07:05;18.30;99.90
8067;DHT22;4076;48.076;9.118;2023-09-18T16:09:31;18.30;99.90
8067;DHT22;4076;48.076;9.118;2023-09-18T16:11:57;18.30;99.90
8067;DHT22;4076;48.076;9.118;2023-09-18T16:14:23;18.30;99.90
8067;DHT22;4076;48.076;9.118;2023-09-18T16:16:48;18.30;99.90